sensor_id;sensor_type;location;lat;lon;timestamp;P1;durP1;ratioP1;P2;durP2;ratioP2
56413;SDS011;42318;48.452;19.526;2024-01-06T00:00:05;4.25;;;2.60;;
56413;SDS011;42318;48.452;19.526;2024-01-06T00:03:06;4.18;;;2.63;;
56413;SDS011;42318;48.452;19.526;2024-01-06T00:06:07;5.22;;;2.97;;
56413;SDS011;42318;48.452;19.526;2024-01-06T00:09:07;6.72;;;2.88;;
56413;SDS011;42318;48.452;19.526;2024-01-06T00:12:08;6.35;;;3.17;;
56413;SDS011;42318;48.452;19.526;2024-01-06T00:15:09;4.75;;;2.70;;
56413;SDS011;42318;48.452;19.526;2024-01-06T00:18:11;4.25;;;2.60;;
56413;SDS011;42318;48.452;19.526;2024-01-06T00:21:11;4.80;;;2.78;;
56413;SDS011;42318;48.452;19.526;2024-01-06T00:24:12;5.05;;;2.80;;
56413;SDS011;42318;48.452;19.526;2024-01-06T00:27:12;5.93;;;2.55;;
56413;SDS011;42318;48.452;19.526;2024-01-06T00:30:14;4.82;;;2.67;;
56413;SDS011;42318;48.452;19.526;2024-01-06T00:33:14;7.10;;;3.05;;
56413;SDS011;42318;48.452;19.526;2024-01-06T00:36:15;8.30;;;3.10;;
56413;SDS011;42318;48.452;19.526;2024-01-06T00:39:15;6.35;;;2.80;;
56413;SDS011;42318;48.452;19.526;2024-01-06T00:42:16;5.43;;;3.00;;
56413;SDS011;42318;48.452;19.526;2024-01-06T00:45:17;4.13;;;2.40;;
56413;SDS011;42318;48.452;19.526;2024-01-06T00:48:18;4.63;;;2.30;;
56413;SDS011;42318;48.452;19.526;2024-01-06T00:51:18;4.97;;;2.80;;
56413;SDS011;42318;48.452;19.526;2024-01-06T00:54:19;3.25;;;2.33;;
56413;SDS011;42318;48.452;19.526;2024-01-06T00:57:20;5.88;;;2.70;;
56413;SDS011;42318;48.452;19.526;2024-01-06T01:00:24;3.83;;;2.30;;
56413;SDS011;42318;48.452;19.526;2024-01-06T01:03:25;4.00;;;2.50;;
56413;SDS011;42318;48.452;19.526;2024-01-06T01:06:26;4.78;;;2.92;;
56413;SDS011;42318;48.452;19.526;2024-01-06T01:09:27;3.88;;;2.30;;
56413;SDS011;42318;48.452;19.526;2024-01-06T01:12:28;4.53;;;2.50;;
56413;SDS011;42318;48.452;19.526;2024-01-06T01:15:28;3.60;;;2.55;;
56413;SDS011;42318;48.452;19.526;2024-01-06T01:18:29;4.65;;;2.60;;
56413;SDS011;42318;48.452;19.526;2024-01-06T01:21:30;8.00;;;2.58;;
56413;SDS011;42318;48.452;19.526;2024-01-06T01:24:30;4.38;;;2.30;;
56413;SDS011;42318;48.452;19.526;2024-01-06T01:27:31;3.78;;;2.20;;
56413;SDS011;42318;48.452;19.526;2024-01-06T01:30:31;4.50;;;2.47;;
56413;SDS011;42318;48.452;19.526;2024-01-06T01:33:32;5.05;;;2.40;;
56413;SDS011;42318;48.452;19.526;2024-01-06T01:36:33;4.05;;;2.30;;
56413;SDS011;42318;48.452;19.526;2024-01-06T01:39:33;3.40;;;2.15;;
56413;SDS011;42318;48.452;19.526;2024-01-06T01:42:34;4.47;;;2.72;;
56413;SDS011;42318;48.452;19.526;2024-01-06T01:45:35;5.00;;;2.95;;
56413;SDS011;42318;48.452;19.526;2024-01-06T01:48:35;4.18;;;2.33;;
56413;SDS011;42318;48.452;19.526;2024-01-06T01:51:36;4.38;;;2.10;;
56413;SDS011;42318;48.452;19.526;2024-01-06T01:54:38;4.57;;;2.30;;
56413;SDS011;42318;48.452;19.526;2024-01-06T01:57:39;5.22;;;2.70;;
56413;SDS011;42318;48.452;19.526;2024-01-06T02:00:41;4.43;;;2.40;;
56413;SDS011;42318;48.452;19.526;2024-01-06T02:03:41;4.00;;;2.10;;
56413;SDS011;42318;48.452;19.526;2024-01-06T02:06:45;4.28;;;2.40;;
56413;SDS011;42318;48.452;19.526;2024-01-06T02:09:45;3.78;;;1.95;;
56413;SDS011;42318;48.452;19.526;2024-01-06T02:12:46;4.85;;;2.50;;
56413;SDS011;42318;48.452;19.526;2024-01-06T02:15:48;3.78;;;2.40;;
56413;SDS011;42318;48.452;19.526;2024-01-06T02:18:48;6.43;;;2.13;;
56413;SDS011;42318;48.452;19.526;2024-01-06T02:21:52;5.03;;;2.90;;
56413;SDS011;42318;48.452;19.526;2024-01-06T02:24:54;3.70;;;2.05;;
56413;SDS011;42318;48.452;19.526;2024-01-06T02:27:55;2.85;;;2.13;;
56413;SDS011;42318;48.452;19.526;2024-01-06T02:30:55;3.67;;;2.17;;
56413;SDS011;42318;48.452;19.526;2024-01-06T02:33:56;3.38;;;2.08;;
56413;SDS011;42318;48.452;19.526;2024-01-06T02:36:57;3.20;;;2.22;;
56413;SDS011;42318;48.452;19.526;2024-01-06T02:39:57;4.00;;;2.42;;
56413;SDS011;42318;48.452;19.526;2024-01-06T02:42:58;2.90;;;1.98;;
56413;SDS011;42318;48.452;19.526;2024-01-06T02:45:59;3.05;;;2.28;;
56413;SDS011;42318;48.452;19.526;2024-01-06T02:49:00;3.35;;;2.28;;
56413;SDS011;42318;48.452;19.526;2024-01-06T02:52:00;4.80;;;2.28;;
56413;SDS011;42318;48.452;19.526;2024-01-06T02:55:01;3.45;;;2.13;;
56413;SDS011;42318;48.452;19.526;2024-01-06T02:58:02;3.65;;;2.40;;
56413;SDS011;42318;48.452;19.526;2024-01-06T03:01:02;3.42;;;1.90;;
56413;SDS011;42318;48.452;19.526;2024-01-06T03:04:03;3.97;;;2.13;;
56413;SDS011;42318;48.452;19.526;2024-01-06T03:07:04;3.65;;;1.80;;
56413;SDS011;42318;48.452;19.526;2024-01-06T03:10:05;3.25;;;2.05;;
56413;SDS011;42318;48.452;19.526;2024-01-06T03:13:06;3.78;;;2.13;;
56413;SDS011;42318;48.452;19.526;2024-01-06T03:16:06;3.72;;;1.98;;
56413;SDS011;42318;48.452;19.526;2024-01-06T03:19:07;2.92;;;2.10;;
56413;SDS011;42318;48.452;19.526;2024-01-06T03:22:07;3.20;;;2.20;;
56413;SDS011;42318;48.452;19.526;2024-01-06T03:25:08;2.95;;;1.90;;
56413;SDS011;42318;48.452;19.526;2024-01-06T03:28:09;3.03;;;2.10;;
56413;SDS011;42318;48.452;19.526;2024-01-06T03:31:10;3.10;;;2.10;;
56413;SDS011;42318;48.452;19.526;2024-01-06T03:34:10;2.97;;;2.00;;
56413;SDS011;42318;48.452;19.526;2024-01-06T03:37:12;2.75;;;1.90;;
56413;SDS011;42318;48.452;19.526;2024-01-06T03:40:12;3.53;;;2.15;;
56413;SDS011;42318;48.452;19.526;2024-01-06T03:43:13;4.43;;;2.42;;
56413;SDS011;42318;48.452;19.526;2024-01-06T03:46:13;3.28;;;2.25;;
56413;SDS011;42318;48.452;19.526;2024-01-06T03:49:14;4.07;;;2.00;;
56413;SDS011;42318;48.452;19.526;2024-01-06T03:52:15;3.33;;;2.05;;
56413;SDS011;42318;48.452;19.526;2024-01-06T03:55:15;2.42;;;1.90;;
56413;SDS011;42318;48.452;19.526;2024-01-06T03:58:16;3.13;;;2.20;;
56413;SDS011;42318;48.452;19.526;2024-01-06T04:01:17;2.92;;;1.83;;
56413;SDS011;42318;48.452;19.526;2024-01-06T04:04:17;3.50;;;1.80;;
56413;SDS011;42318;48.452;19.526;2024-01-06T04:07:18;3.28;;;2.08;;
56413;SDS011;42318;48.452;19.526;2024-01-06T04:10:19;2.83;;;2.10;;
56413;SDS011;42318;48.452;19.526;2024-01-06T04:13:20;2.38;;;1.60;;
56413;SDS011;42318;48.452;19.526;2024-01-06T04:16:20;3.08;;;2.50;;
56413;SDS011;42318;48.452;19.526;2024-01-06T04:19:21;3.25;;;1.95;;
56413;SDS011;42318;48.452;19.526;2024-01-06T04:22:22;2.78;;;2.15;;
56413;SDS011;42318;48.452;19.526;2024-01-06T04:25:23;2.47;;;1.85;;
56413;SDS011;42318;48.452;19.526;2024-01-06T04:28:23;3.08;;;2.08;;
56413;SDS011;42318;48.452;19.526;2024-01-06T04:31:24;2.50;;;1.83;;
56413;SDS011;42318;48.452;19.526;2024-01-06T04:34:24;3.97;;;2.13;;
56413;SDS011;42318;48.452;19.526;2024-01-06T04:37:25;3.80;;;2.10;;
56413;SDS011;42318;48.452;19.526;2024-01-06T04:40:26;3.10;;;1.92;;
56413;SDS011;42318;48.452;19.526;2024-01-06T04:43:26;3.28;;;1.90;;
56413;SDS011;42318;48.452;19.526;2024-01-06T04:46:27;2.75;;;1.98;;
56413;SDS011;42318;48.452;19.526;2024-01-06T04:49:28;3.58;;;2.25;;
56413;SDS011;42318;48.452;19.526;2024-01-06T04:52:28;4.28;;;2.22;;
56413;SDS011;42318;48.452;19.526;2024-01-06T04:55:30;2.63;;;2.22;;
56413;SDS011;42318;48.452;19.526;2024-01-06T04:58:30;3.75;;;1.98;;
56413;SDS011;42318;48.452;19.526;2024-01-06T05:01:31;2.70;;;1.83;;
56413;SDS011;42318;48.452;19.526;2024-01-06T05:04:32;4.38;;;2.20;;
56413;SDS011;42318;48.452;19.526;2024-01-06T05:07:33;2.35;;;1.95;;
56413;SDS011;42318;48.452;19.526;2024-01-06T05:10:33;4.32;;;1.95;;
56413;SDS011;42318;48.452;19.526;2024-01-06T05:13:34;2.83;;;2.00;;
56413;SDS011;42318;48.452;19.526;2024-01-06T05:16:35;2.70;;;1.95;;
56413;SDS011;42318;48.452;19.526;2024-01-06T05:19:35;2.95;;;1.83;;
56413;SDS011;42318;48.452;19.526;2024-01-06T05:22:36;3.10;;;1.80;;
56413;SDS011;42318;48.452;19.526;2024-01-06T05:25:37;2.60;;;1.95;;
56413;SDS011;42318;48.452;19.526;2024-01-06T05:28:37;2.92;;;1.95;;
56413;SDS011;42318;48.452;19.526;2024-01-06T05:31:38;2.75;;;1.95;;
56413;SDS011;42318;48.452;19.526;2024-01-06T05:34:38;2.92;;;2.30;;
56413;SDS011;42318;48.452;19.526;2024-01-06T05:37:40;3.42;;;2.10;;
56413;SDS011;42318;48.452;19.526;2024-01-06T05:40:40;3.03;;;2.00;;
56413;SDS011;42318;48.452;19.526;2024-01-06T05:43:41;4.18;;;2.10;;
56413;SDS011;42318;48.452;19.526;2024-01-06T05:46:42;2.83;;;1.95;;
56413;SDS011;42318;48.452;19.526;2024-01-06T05:49:43;2.83;;;2.00;;
56413;SDS011;42318;48.452;19.526;2024-01-06T05:52:44;3.30;;;2.17;;
56413;SDS011;42318;48.452;19.526;2024-01-06T05:55:47;3.08;;;2.00;;
56413;SDS011;42318;48.452;19.526;2024-01-06T05:58:48;3.05;;;1.90;;
56413;SDS011;42318;48.452;19.526;2024-01-06T06:01:49;3.08;;;1.83;;
56413;SDS011;42318;48.452;19.526;2024-01-06T06:04:49;3.78;;;2.15;;
56413;SDS011;42318;48.452;19.526;2024-01-06T06:07:50;3.22;;;1.92;;
56413;SDS011;42318;48.452;19.526;2024-01-06T06:10:50;4.68;;;2.15;;
56413;SDS011;42318;48.452;19.526;2024-01-06T06:14:14;2.78;;;1.90;;
56413;SDS011;42318;48.452;19.526;2024-01-06T06:17:14;3.03;;;2.00;;
56413;SDS011;42318;48.452;19.526;2024-01-06T06:20:15;4.15;;;2.00;;
56413;SDS011;42318;48.452;19.526;2024-01-06T06:23:16;3.47;;;2.20;;
56413;SDS011;42318;48.452;19.526;2024-01-06T06:26:17;2.97;;;2.10;;
56413;SDS011;42318;48.452;19.526;2024-01-06T06:29:17;3.05;;;1.95;;
56413;SDS011;42318;48.452;19.526;2024-01-06T06:32:18;3.20;;;1.90;;
56413;SDS011;42318;48.452;19.526;2024-01-06T06:35:19;3.08;;;2.28;;
56413;SDS011;42318;48.452;19.526;2024-01-06T06:38:19;3.38;;;2.40;;
56413;SDS011;42318;48.452;19.526;2024-01-06T06:41:21;3.47;;;2.13;;
56413;SDS011;42318;48.452;19.526;2024-01-06T06:44:22;4.05;;;2.60;;
56413;SDS011;42318;48.452;19.526;2024-01-06T06:47:23;4.13;;;2.38;;
56413;SDS011;42318;48.452;19.526;2024-01-06T06:50:24;2.88;;;2.22;;
56413;SDS011;42318;48.452;19.526;2024-01-06T06:53:24;2.67;;;1.92;;
56413;SDS011;42318;48.452;19.526;2024-01-06T06:56:26;2.70;;;2.20;;
56413;SDS011;42318;48.452;19.526;2024-01-06T06:59:27;3.60;;;2.63;;
56413;SDS011;42318;48.452;19.526;2024-01-06T07:02:28;3.63;;;2.22;;
56413;SDS011;42318;48.452;19.526;2024-01-06T07:05:28;3.55;;;2.30;;
56413;SDS011;42318;48.452;19.526;2024-01-06T07:08:29;3.42;;;2.40;;
56413;SDS011;42318;48.452;19.526;2024-01-06T07:11:30;3.60;;;2.50;;
56413;SDS011;42318;48.452;19.526;2024-01-06T07:14:30;3.38;;;2.42;;
56413;SDS011;42318;48.452;19.526;2024-01-06T07:17:31;2.63;;;2.00;;
56413;SDS011;42318;48.452;19.526;2024-01-06T07:20:32;2.80;;;2.25;;
56413;SDS011;42318;48.452;19.526;2024-01-06T07:23:32;3.17;;;2.60;;
56413;SDS011;42318;48.452;19.526;2024-01-06T07:26:34;4.47;;;2.47;;
56413;SDS011;42318;48.452;19.526;2024-01-06T07:29:35;3.92;;;2.95;;
56413;SDS011;42318;48.452;19.526;2024-01-06T07:32:35;4.13;;;2.72;;
56413;SDS011;42318;48.452;19.526;2024-01-06T07:35:36;4.28;;;3.10;;
56413;SDS011;42318;48.452;19.526;2024-01-06T07:38:37;4.20;;;3.00;;
56413;SDS011;42318;48.452;19.526;2024-01-06T07:41:37;5.65;;;3.53;;
56413;SDS011;42318;48.452;19.526;2024-01-06T07:44:38;6.20;;;3.78;;
56413;SDS011;42318;48.452;19.526;2024-01-06T07:47:39;4.95;;;3.97;;
56413;SDS011;42318;48.452;19.526;2024-01-06T07:50:39;5.65;;;4.03;;
56413;SDS011;42318;48.452;19.526;2024-01-06T07:53:40;5.22;;;3.58;;
56413;SDS011;42318;48.452;19.526;2024-01-06T07:56:41;7.47;;;4.60;;
56413;SDS011;42318;48.452;19.526;2024-01-06T07:59:43;6.13;;;4.38;;
56413;SDS011;42318;48.452;19.526;2024-01-06T08:02:43;6.75;;;4.95;;
56413;SDS011;42318;48.452;19.526;2024-01-06T08:05:44;6.50;;;4.47;;
56413;SDS011;42318;48.452;19.526;2024-01-06T08:08:45;6.70;;;4.90;;
56413;SDS011;42318;48.452;19.526;2024-01-06T08:11:47;7.30;;;5.35;;
56413;SDS011;42318;48.452;19.526;2024-01-06T08:14:48;7.70;;;5.65;;
56413;SDS011;42318;48.452;19.526;2024-01-06T08:17:49;7.97;;;5.55;;
56413;SDS011;42318;48.452;19.526;2024-01-06T08:20:51;11.63;;;5.85;;
56413;SDS011;42318;48.452;19.526;2024-01-06T08:23:52;8.75;;;6.38;;
56413;SDS011;42318;48.452;19.526;2024-01-06T08:26:52;8.70;;;6.55;;
56413;SDS011;42318;48.452;19.526;2024-01-06T08:29:56;15.27;;;7.47;;
56413;SDS011;42318;48.452;19.526;2024-01-06T08:32:57;13.73;;;6.78;;
56413;SDS011;42318;48.452;19.526;2024-01-06T08:35:58;17.13;;;7.20;;
56413;SDS011;42318;48.452;19.526;2024-01-06T08:38:59;14.93;;;7.13;;
56413;SDS011;42318;48.452;19.526;2024-01-06T08:41:59;14.07;;;8.13;;
56413;SDS011;42318;48.452;19.526;2024-01-06T08:45:00;15.30;;;7.35;;
56413;SDS011;42318;48.452;19.526;2024-01-06T08:48:01;12.68;;;7.50;;
56413;SDS011;42318;48.452;19.526;2024-01-06T08:51:01;15.68;;;7.93;;
56413;SDS011;42318;48.452;19.526;2024-01-06T08:54:02;16.30;;;7.43;;
56413;SDS011;42318;48.452;19.526;2024-01-06T08:57:05;16.50;;;8.10;;
56413;SDS011;42318;48.452;19.526;2024-01-06T09:00:06;11.63;;;7.30;;
56413;SDS011;42318;48.452;19.526;2024-01-06T09:03:09;13.23;;;7.10;;
56413;SDS011;42318;48.452;19.526;2024-01-06T09:06:10;11.35;;;7.18;;
56413;SDS011;42318;48.452;19.526;2024-01-06T09:09:11;13.13;;;7.63;;
56413;SDS011;42318;48.452;19.526;2024-01-06T09:12:12;14.57;;;7.70;;
56413;SDS011;42318;48.452;19.526;2024-01-06T09:15:12;14.55;;;7.07;;
56413;SDS011;42318;48.452;19.526;2024-01-06T09:18:13;12.13;;;7.18;;
56413;SDS011;42318;48.452;19.526;2024-01-06T09:21:14;11.95;;;7.70;;
56413;SDS011;42318;48.452;19.526;2024-01-06T09:24:14;10.43;;;6.75;;
56413;SDS011;42318;48.452;19.526;2024-01-06T09:27:16;11.95;;;7.18;;
56413;SDS011;42318;48.452;19.526;2024-01-06T09:30:16;12.88;;;7.07;;
56413;SDS011;42318;48.452;19.526;2024-01-06T09:33:18;14.27;;;7.03;;
56413;SDS011;42318;48.452;19.526;2024-01-06T09:36:18;16.23;;;6.85;;
56413;SDS011;42318;48.452;19.526;2024-01-06T09:39:19;17.00;;;7.20;;
56413;SDS011;42318;48.452;19.526;2024-01-06T09:42:20;12.40;;;7.60;;
56413;SDS011;42318;48.452;19.526;2024-01-06T09:45:21;13.35;;;6.95;;
56413;SDS011;42318;48.452;19.526;2024-01-06T09:48:21;12.27;;;7.00;;
56413;SDS011;42318;48.452;19.526;2024-01-06T09:51:26;12.35;;;7.95;;
56413;SDS011;42318;48.452;19.526;2024-01-06T09:54:29;12.38;;;7.30;;
56413;SDS011;42318;48.452;19.526;2024-01-06T09:57:33;12.20;;;7.40;;
56413;SDS011;42318;48.452;19.526;2024-01-06T10:00:34;16.27;;;8.00;;
56413;SDS011;42318;48.452;19.526;2024-01-06T10:03:35;13.10;;;8.88;;
56413;SDS011;42318;48.452;19.526;2024-01-06T10:06:38;13.02;;;8.25;;
56413;SDS011;42318;48.452;19.526;2024-01-06T10:09:40;12.85;;;8.32;;
56413;SDS011;42318;48.452;19.526;2024-01-06T10:12:42;17.52;;;8.98;;
56413;SDS011;42318;48.452;19.526;2024-01-06T10:15:43;12.75;;;9.18;;
56413;SDS011;42318;48.452;19.526;2024-01-06T10:18:44;14.07;;;9.25;;
56413;SDS011;42318;48.452;19.526;2024-01-06T10:21:45;13.73;;;8.70;;
56413;SDS011;42318;48.452;19.526;2024-01-06T10:24:46;16.13;;;8.55;;
56413;SDS011;42318;48.452;19.526;2024-01-06T10:27:47;18.52;;;9.68;;
56413;SDS011;42318;48.452;19.526;2024-01-06T10:30:47;15.85;;;9.00;;
56413;SDS011;42318;48.452;19.526;2024-01-06T10:33:48;14.05;;;9.13;;
56413;SDS011;42318;48.452;19.526;2024-01-06T10:36:50;13.50;;;9.32;;
56413;SDS011;42318;48.452;19.526;2024-01-06T10:43:07;15.40;;;8.65;;
56413;SDS011;42318;48.452;19.526;2024-01-06T10:46:09;14.05;;;8.13;;
56413;SDS011;42318;48.452;19.526;2024-01-06T10:49:14;16.02;;;8.70;;
56413;SDS011;42318;48.452;19.526;2024-01-06T10:52:15;16.65;;;9.10;;
56413;SDS011;42318;48.452;19.526;2024-01-06T10:55:16;14.15;;;9.20;;
56413;SDS011;42318;48.452;19.526;2024-01-06T10:58:20;13.43;;;8.80;;
56413;SDS011;42318;48.452;19.526;2024-01-06T11:01:23;17.40;;;8.40;;
56413;SDS011;42318;48.452;19.526;2024-01-06T11:04:27;14.45;;;8.43;;
56413;SDS011;42318;48.452;19.526;2024-01-06T11:07:28;15.55;;;8.02;;
56413;SDS011;42318;48.452;19.526;2024-01-06T11:10:29;19.35;;;9.45;;
56413;SDS011;42318;48.452;19.526;2024-01-06T11:13:31;17.58;;;8.95;;
56413;SDS011;42318;48.452;19.526;2024-01-06T11:16:35;22.00;;;9.05;;
56413;SDS011;42318;48.452;19.526;2024-01-06T11:22:37;16.90;;;9.50;;
56413;SDS011;42318;48.452;19.526;2024-01-06T11:25:40;16.45;;;10.05;;
56413;SDS011;42318;48.452;19.526;2024-01-06T11:28:45;18.98;;;9.95;;
56413;SDS011;42318;48.452;19.526;2024-01-06T11:35:20;22.92;;;10.60;;
56413;SDS011;42318;48.452;19.526;2024-01-06T11:38:22;14.55;;;9.93;;
56413;SDS011;42318;48.452;19.526;2024-01-06T11:44:50;16.52;;;10.20;;
56413;SDS011;42318;48.452;19.526;2024-01-06T11:47:55;19.52;;;10.55;;
56413;SDS011;42318;48.452;19.526;2024-01-06T11:51:01;19.05;;;9.30;;
56413;SDS011;42318;48.452;19.526;2024-01-06T11:54:03;15.27;;;9.90;;
56413;SDS011;42318;48.452;19.526;2024-01-06T11:57:04;19.88;;;9.70;;
56413;SDS011;42318;48.452;19.526;2024-01-06T12:00:05;15.65;;;8.00;;
56413;SDS011;42318;48.452;19.526;2024-01-06T12:03:06;13.57;;;8.02;;
56413;SDS011;42318;48.452;19.526;2024-01-06T12:06:07;13.32;;;8.20;;
56413;SDS011;42318;48.452;19.526;2024-01-06T12:09:08;14.25;;;8.73;;
56413;SDS011;42318;48.452;19.526;2024-01-06T12:12:11;12.27;;;8.05;;
56413;SDS011;42318;48.452;19.526;2024-01-06T12:15:14;16.02;;;8.27;;
56413;SDS011;42318;48.452;19.526;2024-01-06T12:18:14;12.63;;;7.93;;
56413;SDS011;42318;48.452;19.526;2024-01-06T12:21:15;10.32;;;7.15;;
56413;SDS011;42318;48.452;19.526;2024-01-06T12:24:17;10.90;;;7.10;;
56413;SDS011;42318;48.452;19.526;2024-01-06T12:27:24;16.02;;;7.28;;
56413;SDS011;42318;48.452;19.526;2024-01-06T12:30:25;11.68;;;7.10;;
56413;SDS011;42318;48.452;19.526;2024-01-06T12:33:26;12.30;;;7.35;;
56413;SDS011;42318;48.452;19.526;2024-01-06T12:36:27;13.43;;;6.93;;
56413;SDS011;42318;48.452;19.526;2024-01-06T12:39:28;11.10;;;6.78;;
56413;SDS011;42318;48.452;19.526;2024-01-06T12:42:31;10.15;;;7.00;;
56413;SDS011;42318;48.452;19.526;2024-01-06T12:45:32;11.88;;;6.90;;
56413;SDS011;42318;48.452;19.526;2024-01-06T12:48:32;14.25;;;6.72;;
56413;SDS011;42318;48.452;19.526;2024-01-06T12:51:33;15.73;;;7.10;;
56413;SDS011;42318;48.452;19.526;2024-01-06T12:54:34;12.60;;;6.88;;
56413;SDS011;42318;48.452;19.526;2024-01-06T12:57:34;13.07;;;6.28;;
56413;SDS011;42318;48.452;19.526;2024-01-06T13:00:35;13.70;;;6.70;;
56413;SDS011;42318;48.452;19.526;2024-01-06T13:03:36;14.88;;;7.10;;
56413;SDS011;42318;48.452;19.526;2024-01-06T13:06:37;17.83;;;7.22;;
56413;SDS011;42318;48.452;19.526;2024-01-06T13:09:38;10.70;;;6.55;;
56413;SDS011;42318;48.452;19.526;2024-01-06T13:12:39;13.63;;;6.88;;
56413;SDS011;42318;48.452;19.526;2024-01-06T13:15:40;13.10;;;6.50;;
56413;SDS011;42318;48.452;19.526;2024-01-06T13:18:41;14.38;;;6.43;;
56413;SDS011;42318;48.452;19.526;2024-01-06T13:21:41;14.15;;;6.53;;
56413;SDS011;42318;48.452;19.526;2024-01-06T13:24:42;9.88;;;6.55;;
56413;SDS011;42318;48.452;19.526;2024-01-06T13:27:43;12.13;;;6.57;;
56413;SDS011;42318;48.452;19.526;2024-01-06T13:30:44;13.52;;;6.70;;
56413;SDS011;42318;48.452;19.526;2024-01-06T13:33:44;10.80;;;6.85;;
56413;SDS011;42318;48.452;19.526;2024-01-06T13:36:45;16.80;;;7.55;;
56413;SDS011;42318;48.452;19.526;2024-01-06T13:39:45;13.15;;;6.97;;
56413;SDS011;42318;48.452;19.526;2024-01-06T13:42:47;14.35;;;6.68;;
56413;SDS011;42318;48.452;19.526;2024-01-06T13:45:49;9.98;;;6.18;;
56413;SDS011;42318;48.452;19.526;2024-01-06T13:48:50;10.98;;;8.00;;
56413;SDS011;42318;48.452;19.526;2024-01-06T13:51:50;12.52;;;6.53;;
56413;SDS011;42318;48.452;19.526;2024-01-06T13:54:51;10.80;;;7.03;;
56413;SDS011;42318;48.452;19.526;2024-01-06T13:57:52;12.43;;;6.25;;
56413;SDS011;42318;48.452;19.526;2024-01-06T14:00:54;15.93;;;6.47;;
56413;SDS011;42318;48.452;19.526;2024-01-06T14:03:54;9.73;;;6.47;;
56413;SDS011;42318;48.452;19.526;2024-01-06T14:06:58;10.52;;;6.20;;
56413;SDS011;42318;48.452;19.526;2024-01-06T14:09:58;12.52;;;6.25;;
56413;SDS011;42318;48.452;19.526;2024-01-06T14:12:59;11.50;;;6.18;;
56413;SDS011;42318;48.452;19.526;2024-01-06T14:15:59;14.27;;;6.57;;
56413;SDS011;42318;48.452;19.526;2024-01-06T14:19:00;12.18;;;6.30;;
56413;SDS011;42318;48.452;19.526;2024-01-06T14:22:01;14.27;;;5.80;;
56413;SDS011;42318;48.452;19.526;2024-01-06T14:25:05;12.85;;;5.60;;
56413;SDS011;42318;48.452;19.526;2024-01-06T14:28:06;9.80;;;5.93;;
56413;SDS011;42318;48.452;19.526;2024-01-06T14:31:07;11.88;;;6.32;;
56413;SDS011;42318;48.452;19.526;2024-01-06T14:34:10;14.80;;;10.10;;
56413;SDS011;42318;48.452;19.526;2024-01-06T14:37:11;14.07;;;8.55;;
56413;SDS011;42318;48.452;19.526;2024-01-06T14:40:11;18.52;;;7.35;;
56413;SDS011;42318;48.452;19.526;2024-01-06T14:43:13;12.00;;;6.80;;
56413;SDS011;42318;48.452;19.526;2024-01-06T14:46:14;13.98;;;6.32;;
56413;SDS011;42318;48.452;19.526;2024-01-06T14:49:14;11.80;;;5.80;;
56413;SDS011;42318;48.452;19.526;2024-01-06T14:52:15;12.55;;;6.10;;
56413;SDS011;42318;48.452;19.526;2024-01-06T14:55:17;10.90;;;5.72;;
56413;SDS011;42318;48.452;19.526;2024-01-06T14:58:18;12.20;;;5.60;;
56413;SDS011;42318;48.452;19.526;2024-01-06T15:01:19;11.43;;;7.25;;
56413;SDS011;42318;48.452;19.526;2024-01-06T15:04:19;7.30;;;5.50;;
56413;SDS011;42318;48.452;19.526;2024-01-06T15:07:20;10.40;;;5.78;;
56413;SDS011;42318;48.452;19.526;2024-01-06T15:10:21;10.07;;;6.18;;
56413;SDS011;42318;48.452;19.526;2024-01-06T15:13:22;16.13;;;6.25;;
56413;SDS011;42318;48.452;19.526;2024-01-06T15:16:23;11.18;;;5.97;;
56413;SDS011;42318;48.452;19.526;2024-01-06T15:19:24;9.30;;;5.40;;
56413;SDS011;42318;48.452;19.526;2024-01-06T15:22:27;12.75;;;5.60;;
56413;SDS011;42318;48.452;19.526;2024-01-06T15:25:28;10.60;;;5.35;;
56413;SDS011;42318;48.452;19.526;2024-01-06T15:28:29;11.38;;;6.03;;
56413;SDS011;42318;48.452;19.526;2024-01-06T15:31:30;10.98;;;5.78;;
56413;SDS011;42318;48.452;19.526;2024-01-06T15:34:30;14.20;;;5.95;;
56413;SDS011;42318;48.452;19.526;2024-01-06T15:37:31;11.02;;;5.68;;
56413;SDS011;42318;48.452;19.526;2024-01-06T15:40:32;9.45;;;6.38;;
56413;SDS011;42318;48.452;19.526;2024-01-06T15:43:32;9.00;;;5.80;;
56413;SDS011;42318;48.452;19.526;2024-01-06T15:46:34;8.25;;;5.72;;
56413;SDS011;42318;48.452;19.526;2024-01-06T15:49:35;10.38;;;6.47;;
56413;SDS011;42318;48.452;19.526;2024-01-06T15:52:36;9.38;;;5.53;;
56413;SDS011;42318;48.452;19.526;2024-01-06T15:55:37;14.35;;;5.65;;
56413;SDS011;42318;48.452;19.526;2024-01-06T15:58:39;10.50;;;6.10;;
56413;SDS011;42318;48.452;19.526;2024-01-06T16:01:42;9.98;;;6.07;;
56413;SDS011;42318;48.452;19.526;2024-01-06T16:04:43;9.77;;;5.68;;
56413;SDS011;42318;48.452;19.526;2024-01-06T16:07:44;8.23;;;6.03;;
56413;SDS011;42318;48.452;19.526;2024-01-06T16:10:44;8.60;;;5.45;;
56413;SDS011;42318;48.452;19.526;2024-01-06T16:13:45;8.82;;;5.88;;
56413;SDS011;42318;48.452;19.526;2024-01-06T16:16:47;11.55;;;5.90;;
56413;SDS011;42318;48.452;19.526;2024-01-06T16:19:48;10.57;;;5.85;;
56413;SDS011;42318;48.452;19.526;2024-01-06T16:22:48;10.65;;;6.10;;
56413;SDS011;42318;48.452;19.526;2024-01-06T16:25:51;9.25;;;5.75;;
56413;SDS011;42318;48.452;19.526;2024-01-06T16:28:51;9.32;;;5.88;;
56413;SDS011;42318;48.452;19.526;2024-01-06T16:31:53;10.52;;;6.18;;
56413;SDS011;42318;48.452;19.526;2024-01-06T16:34:53;9.45;;;6.53;;
56413;SDS011;42318;48.452;19.526;2024-01-06T16:37:54;11.07;;;6.63;;
56413;SDS011;42318;48.452;19.526;2024-01-06T16:40:55;10.60;;;6.10;;
56413;SDS011;42318;48.452;19.526;2024-01-06T16:43:55;8.93;;;5.65;;
56413;SDS011;42318;48.452;19.526;2024-01-06T16:46:57;7.25;;;5.60;;
56413;SDS011;42318;48.452;19.526;2024-01-06T16:49:59;7.60;;;4.95;;
56413;SDS011;42318;48.452;19.526;2024-01-06T16:52:59;8.05;;;6.30;;
56413;SDS011;42318;48.452;19.526;2024-01-06T16:56:01;8.65;;;5.78;;
56413;SDS011;42318;48.452;19.526;2024-01-06T16:59:03;9.05;;;5.95;;
56413;SDS011;42318;48.452;19.526;2024-01-06T17:02:04;10.02;;;5.53;;
56413;SDS011;42318;48.452;19.526;2024-01-06T17:05:04;10.70;;;6.25;;
56413;SDS011;42318;48.452;19.526;2024-01-06T17:08:08;9.23;;;6.03;;
56413;SDS011;42318;48.452;19.526;2024-01-06T17:11:09;7.65;;;5.60;;
56413;SDS011;42318;48.452;19.526;2024-01-06T17:14:10;8.48;;;5.68;;
56413;SDS011;42318;48.452;19.526;2024-01-06T17:17:11;10.05;;;5.88;;
56413;SDS011;42318;48.452;19.526;2024-01-06T17:20:13;10.10;;;6.35;;
56413;SDS011;42318;48.452;19.526;2024-01-06T17:23:13;8.43;;;5.75;;
56413;SDS011;42318;48.452;19.526;2024-01-06T17:26:14;11.40;;;5.90;;
56413;SDS011;42318;48.452;19.526;2024-01-06T17:29:15;10.90;;;6.47;;
56413;SDS011;42318;48.452;19.526;2024-01-06T17:32:16;9.68;;;5.65;;
56413;SDS011;42318;48.452;19.526;2024-01-06T17:35:17;20.58;;;6.43;;
56413;SDS011;42318;48.452;19.526;2024-01-06T17:38:18;17.33;;;7.30;;
56413;SDS011;42318;48.452;19.526;2024-01-06T17:41:18;14.35;;;6.28;;
56413;SDS011;42318;48.452;19.526;2024-01-06T17:44:19;10.65;;;6.18;;
56413;SDS011;42318;48.452;19.526;2024-01-06T17:47:20;19.02;;;7.15;;
56413;SDS011;42318;48.452;19.526;2024-01-06T17:50:21;14.75;;;7.00;;
56413;SDS011;42318;48.452;19.526;2024-01-06T17:53:21;18.92;;;6.50;;
56413;SDS011;42318;48.452;19.526;2024-01-06T17:56:22;11.68;;;6.60;;
56413;SDS011;42318;48.452;19.526;2024-01-06T17:59:22;10.45;;;6.68;;